sensor_id;sensor_type;location;lat;lon;timestamp;pressure;altitude;pressure_sealevel;temperature;humidity
78121;BME280;67585;44.802;10.332;2023-05-19T00:01:44;101241.69;;;16.63;67.20
78121;BME280;67585;44.802;10.332;2023-05-19T00:04:13;101250.88;;;16.73;67.16
78121;BME280;67585;44.802;10.332;2023-05-19T00:06:39;101256.25;;;16.83;66.76
78121;BME280;67585;44.802;10.332;2023-05-19T00:09:08;101244.66;;;16.67;67.27
78121;BME280;67585;44.802;10.332;2023-05-19T00:11:35;101246.81;;;16.70;67.36
78121;BME280;67585;44.802;10.332;2023-05-19T00:14:02;101245.88;;;16.45;68.17
78121;BME280;67585;44.802;10.332;2023-05-19T00:16:29;101241.88;;;16.77;67.92
78121;BME280;67585;44.802;10.332;2023-05-19T00:18:56;101238.25;;;16.48;67.75
78121;BME280;67585;44.802;10.332;2023-05-19T00:21:24;101244.09;;;16.70;67.36
78121;BME280;67585;44.802;10.332;2023-05-19T00:23:49;101242.84;;;16.52;67.91
78121;BME280;67585;44.802;10.332;2023-05-19T00:26:15;101249.22;;;16.37;69.05
78121;BME280;67585;44.802;10.332;2023-05-19T00:28:40;101240.03;;;16.28;68.86
78121;BME280;67585;44.802;10.332;2023-05-19T00:31:06;101249.78;;;16.34;68.83
78121;BME280;67585;44.802;10.332;2023-05-19T00:33:31;101240.09;;;16.18;70.35
78121;BME280;67585;44.802;10.332;2023-05-19T00:36:00;101229.25;;;16.13;71.28
78121;BME280;67585;44.802;10.332;2023-05-19T00:38:30;101239.78;;;16.24;71.46
78121;BME280;67585;44.802;10.332;2023-05-19T00:40:57;101238.19;;;16.18;71.42
78121;BME280;67585;44.802;10.332;2023-05-19T00:43:23;101242.41;;;15.95;72.49
78121;BME280;67585;44.802;10.332;2023-05-19T00:45:48;101239.88;;;16.09;72.77
78121;BME280;67585;44.802;10.332;2023-05-19T00:48:14;101235.13;;;16.30;71.85
78121;BME280;67585;44.802;10.332;2023-05-19T00:50:40;101239.97;;;16.38;71.81
78121;BME280;67585;44.802;10.332;2023-05-19T00:53:06;101236.56;;;16.17;72.04
78121;BME280;67585;44.802;10.332;2023-05-19T00:55:32;101235.53;;;16.08;72.62
78121;BME280;67585;44.802;10.332;2023-05-19T00:58:00;101241.81;;;16.03;73.95
78121;BME280;67585;44.802;10.332;2023-05-19T01:00:25;101233.13;;;16.01;73.50
78121;BME280;67585;44.802;10.332;2023-05-19T01:02:51;101236.28;;;16.19;72.69
78121;BME280;67585;44.802;10.332;2023-05-19T01:05:18;101230.59;;;16.15;73.69
78121;BME280;67585;44.802;10.332;2023-05-19T01:07:43;101234.09;;;16.21;73.82
78121;BME280;67585;44.802;10.332;2023-05-19T01:10:09;101226.06;;;16.00;74.76
78121;BME280;67585;44.802;10.332;2023-05-19T01:12:35;101231.22;;;16.07;74.68
78121;BME280;67585;44.802;10.332;2023-05-19T01:15:02;101228.69;;;16.16;74.10
78121;BME280;67585;44.802;10.332;2023-05-19T01:20:22;101227.31;;;16.18;73.43
78121;BME280;67585;44.802;10.332;2023-05-19T01:23:45;101228.22;;;16.43;72.40
78121;BME280;67585;44.802;10.332;2023-05-19T01:26:08;101221.88;;;16.18;73.55
78121;BME280;67585;44.802;10.332;2023-05-19T01:28:57;101226.28;;;16.09;74.03
78121;BME280;67585;44.802;10.332;2023-05-19T01:31:27;101217.16;;;15.95;75.21
78121;BME280;67585;44.802;10.332;2023-05-19T01:33:53;101234.16;;;16.11;75.14
78121;BME280;67585;44.802;10.332;2023-05-19T01:36:21;101226.84;;;16.06;74.92
78121;BME280;67585;44.802;10.332;2023-05-19T01:38:50;101220.13;;;15.93;75.09
78121;BME280;67585;44.802;10.332;2023-05-19T01:41:18;101235.56;;;16.03;75.09
78121;BME280;67585;44.802;10.332;2023-05-19T01:43:45;101227.13;;;16.10;74.61
78121;BME280;67585;44.802;10.332;2023-05-19T01:46:11;101226.25;;;15.54;76.89
78121;BME280;67585;44.802;10.332;2023-05-19T01:48:38;101231.94;;;15.58;76.60
78121;BME280;67585;44.802;10.332;2023-05-19T01:51:03;101234.91;;;15.72;76.23
78121;BME280;67585;44.802;10.332;2023-05-19T01:53:29;101235.47;;;15.53;77.13
78121;BME280;67585;44.802;10.332;2023-05-19T01:55:55;101240.88;;;15.64;76.37
78121;BME280;67585;44.802;10.332;2023-05-19T01:58:38;101235.81;;;15.26;77.93
78121;BME280;67585;44.802;10.332;2023-05-19T02:01:34;101235.28;;;15.34;77.46
78121;BME280;67585;44.802;10.332;2023-05-19T02:04:19;101233.34;;;15.40;77.24
78121;BME280;67585;44.802;10.332;2023-05-19T02:09:48;101225.78;;;15.32;77.74
78121;BME280;67585;44.802;10.332;2023-05-19T02:12:23;101218.16;;;15.34;77.37
78121;BME280;67585;44.802;10.332;2023-05-19T02:17:22;101225.69;;;15.57;76.07
78121;BME280;67585;44.802;10.332;2023-05-19T02:19:51;101225.72;;;15.52;75.91
78121;BME280;67585;44.802;10.332;2023-05-19T02:22:16;101214.91;;;15.42;75.66
78121;BME280;67585;44.802;10.332;2023-05-19T02:24:41;101213.50;;;15.50;75.61
78121;BME280;67585;44.802;10.332;2023-05-19T02:27:08;101215.13;;;15.56;75.25
78121;BME280;67585;44.802;10.332;2023-05-19T02:29:33;101212.69;;;15.49;75.78
78121;BME280;67585;44.802;10.332;2023-05-19T02:32:00;101223.31;;;15.41;76.45
78121;BME280;67585;44.802;10.332;2023-05-19T02:34:25;101218.13;;;15.49;76.31
78121;BME280;67585;44.802;10.332;2023-05-19T02:36:50;101224.63;;;15.48;76.62
78121;BME280;67585;44.802;10.332;2023-05-19T02:39:16;101226.84;;;15.46;76.84
78121;BME280;67585;44.802;10.332;2023-05-19T02:41:41;101220.34;;;15.37;77.61
78121;BME280;67585;44.802;10.332;2023-05-19T02:44:07;101222.47;;;15.50;76.70
78121;BME280;67585;44.802;10.332;2023-05-19T02:46:32;101221.72;;;15.29;77.41
78121;BME280;67585;44.802;10.332;2023-05-19T02:48:58;101224.97;;;15.36;77.12
78121;BME280;67585;44.802;10.332;2023-05-19T02:51:23;101224.44;;;15.34;77.70
78121;BME280;67585;44.802;10.332;2023-05-19T02:53:49;101218.34;;;15.58;75.98
78121;BME280;67585;44.802;10.332;2023-05-19T02:56:14;101225.22;;;15.40;77.50
78121;BME280;67585;44.802;10.332;2023-05-19T02:58:39;101224.44;;;15.34;77.37
78121;BME280;67585;44.802;10.332;2023-05-19T03:01:07;101219.25;;;15.38;77.08
78121;BME280;67585;44.802;10.332;2023-05-19T03:03:32;101221.22;;;15.07;77.49
78121;BME280;67585;44.802;10.332;2023-05-19T03:05:58;101222.34;;;14.95;77.63
78121;BME280;67585;44.802;10.332;2023-05-19T03:08:23;101224.78;;;14.82;77.12
78121;BME280;67585;44.802;10.332;2023-05-19T03:10:48;101222.84;;;14.92;76.78
78121;BME280;67585;44.802;10.332;2023-05-19T03:13:14;101194.66;;;14.78;77.15
78121;BME280;67585;44.802;10.332;2023-05-19T03:15:41;101218.00;;;14.84;76.84
78121;BME280;67585;44.802;10.332;2023-05-19T03:18:07;101224.22;;;14.95;75.92
78121;BME280;67585;44.802;10.332;2023-05-19T03:20:32;101222.34;;;14.90;75.86
78121;BME280;67585;44.802;10.332;2023-05-19T03:22:58;101204.69;;;14.88;75.49
78121;BME280;67585;44.802;10.332;2023-05-19T03:25:24;101211.22;;;14.82;74.61
78121;BME280;67585;44.802;10.332;2023-05-19T03:27:50;101234.78;;;15.02;75.01
78121;BME280;67585;44.802;10.332;2023-05-19T03:30:15;101230.72;;;15.04;75.16
78121;BME280;67585;44.802;10.332;2023-05-19T03:32:41;101222.56;;;15.04;74.13
78121;BME280;67585;44.802;10.332;2023-05-19T03:35:06;101225.56;;;15.08;73.54
78121;BME280;67585;44.802;10.332;2023-05-19T03:37:32;101211.72;;;15.04;73.28
78121;BME280;67585;44.802;10.332;2023-05-19T03:40:00;101218.41;;;15.48;72.51
78121;BME280;67585;44.802;10.332;2023-05-19T03:42:25;101221.41;;;15.36;72.12
78121;BME280;67585;44.802;10.332;2023-05-19T03:44:51;101247.22;;;15.28;73.50
78121;BME280;67585;44.802;10.332;2023-05-19T03:47:16;101255.94;;;15.20;74.25
78121;BME280;67585;44.802;10.332;2023-05-19T03:49:42;101247.75;;;15.35;74.03
78121;BME280;67585;44.802;10.332;2023-05-19T03:52:07;101257.00;;;15.29;74.50
78121;BME280;67585;44.802;10.332;2023-05-19T03:54:34;101258.63;;;15.30;75.79
78121;BME280;67585;44.802;10.332;2023-05-19T03:57:00;101245.59;;;15.37;75.31
78121;BME280;67585;44.802;10.332;2023-05-19T03:59:26;101245.53;;;15.48;75.56
78121;BME280;67585;44.802;10.332;2023-05-19T04:01:52;101236.66;;;15.32;75.25
78121;BME280;67585;44.802;10.332;2023-05-19T04:04:17;101253.44;;;15.49;74.88
78121;BME280;67585;44.802;10.332;2023-05-19T04:06:42;101267.28;;;15.43;76.17
78121;BME280;67585;44.802;10.332;2023-05-19T04:09:13;101271.94;;;15.22;77.70
78121;BME280;67585;44.802;10.332;2023-05-19T04:11:39;101255.13;;;15.25;76.81
78121;BME280;67585;44.802;10.332;2023-05-19T04:14:05;101253.53;;;15.03;77.28
78121;BME280;67585;44.802;10.332;2023-05-19T04:16:31;101269.25;;;15.01;78.56
78121;BME280;67585;44.802;10.332;2023-05-19T04:18:57;101283.34;;;15.08;78.11
78121;BME280;67585;44.802;10.332;2023-05-19T04:21:22;101281.19;;;15.00;79.06
78121;BME280;67585;44.802;10.332;2023-05-19T04:23:47;101264.09;;;14.94;79.26
78121;BME280;67585;44.802;10.332;2023-05-19T04:26:13;101264.66;;;14.91;79.68
78121;BME280;67585;44.802;10.332;2023-05-19T04:28:39;101254.84;;;15.21;78.46
78121;BME280;67585;44.802;10.332;2023-05-19T04:31:07;101286.56;;;15.36;78.34
78121;BME280;67585;44.802;10.332;2023-05-19T04:33:37;101289.03;;;15.07;79.28
78121;BME280;67585;44.802;10.332;2023-05-19T04:36:04;101264.09;;;15.20;78.73
78121;BME280;67585;44.802;10.332;2023-05-19T04:38:33;101282.81;;;14.96;78.23
78121;BME280;67585;44.802;10.332;2023-05-19T04:40:58;101250.00;;;14.82;77.87
78121;BME280;67585;44.802;10.332;2023-05-19T04:43:25;101299.34;;;15.25;78.08
78121;BME280;67585;44.802;10.332;2023-05-19T04:45:51;101265.19;;;14.88;78.40
78121;BME280;67585;44.802;10.332;2023-05-19T04:48:16;101298.28;;;15.11;78.82
78121;BME280;67585;44.802;10.332;2023-05-19T04:50:42;101301.00;;;15.11;78.97
78121;BME280;67585;44.802;10.332;2023-05-19T04:53:10;101298.84;;;15.03;78.30
78121;BME280;67585;44.802;10.332;2023-05-19T04:55:36;101293.69;;;14.86;78.99
78121;BME280;67585;44.802;10.332;2023-05-19T04:58:02;101291.44;;;14.52;79.75
78121;BME280;67585;44.802;10.332;2023-05-19T05:00:28;101284.63;;;14.39;78.07
78121;BME280;67585;44.802;10.332;2023-05-19T05:02:53;101306.41;;;14.75;78.06
78121;BME280;67585;44.802;10.332;2023-05-19T05:05:21;101302.06;;;14.69;77.96
78121;BME280;67585;44.802;10.332;2023-05-19T05:07:47;101305.59;;;14.59;78.01
78121;BME280;67585;44.802;10.332;2023-05-19T05:10:13;101302.03;;;14.53;78.45
78121;BME280;67585;44.802;10.332;2023-05-19T05:12:39;101311.00;;;14.59;78.53
78121;BME280;67585;44.802;10.332;2023-05-19T05:15:05;101306.44;;;14.90;77.85
78121;BME280;67585;44.802;10.332;2023-05-19T05:17:32;101260.78;;;14.36;78.53
78121;BME280;67585;44.802;10.332;2023-05-19T05:19:58;101291.47;;;14.57;78.31
78121;BME280;67585;44.802;10.332;2023-05-19T05:22:23;101308.31;;;14.74;79.16
78121;BME280;67585;44.802;10.332;2023-05-19T05:24:49;101310.22;;;14.84;78.39
78121;BME280;67585;44.802;10.332;2023-05-19T05:27:15;101307.25;;;14.81;78.08
78121;BME280;67585;44.802;10.332;2023-05-19T05:29:40;101312.03;;;14.53;77.92
78121;BME280;67585;44.802;10.332;2023-05-19T05:32:06;101289.53;;;14.42;78.30
78121;BME280;67585;44.802;10.332;2023-05-19T05:34:32;101316.69;;;14.63;77.66
78121;BME280;67585;44.802;10.332;2023-05-19T05:36:57;101309.09;;;14.65;77.14
78121;BME280;67585;44.802;10.332;2023-05-19T05:39:23;101301.44;;;14.41;78.72
78121;BME280;67585;44.802;10.332;2023-05-19T05:41:48;101300.63;;;14.36;79.35
78121;BME280;67585;44.802;10.332;2023-05-19T05:44:13;101299.81;;;14.40;78.91
78121;BME280;67585;44.802;10.332;2023-05-19T05:46:39;101307.09;;;14.24;79.44
78121;BME280;67585;44.802;10.332;2023-05-19T05:49:05;101315.81;;;14.42;78.63
78121;BME280;67585;44.802;10.332;2023-05-19T05:51:30;101310.13;;;14.43;78.99
78121;BME280;67585;44.802;10.332;2023-05-19T05:53:58;101291.13;;;14.33;78.32
78121;BME280;67585;44.802;10.332;2023-05-19T05:56:24;101312.56;;;14.45;78.75
78121;BME280;67585;44.802;10.332;2023-05-19T05:58:50;101299.00;;;14.35;78.71
78121;BME280;67585;44.802;10.332;2023-05-19T06:01:16;101308.81;;;14.56;78.50
78121;BME280;67585;44.802;10.332;2023-05-19T06:03:42;101317.72;;;14.46;78.60
78121;BME280;67585;44.802;10.332;2023-05-19T06:06:10;101316.63;;;14.37;78.55
78121;BME280;67585;44.802;10.332;2023-05-19T06:08:36;101308.50;;;14.42;77.87
78121;BME280;67585;44.802;10.332;2023-05-19T06:11:01;101319.69;;;14.61;77.80
78121;BME280;67585;44.802;10.332;2023-05-19T06:13:36;101316.56;;;14.27;78.08
78121;BME280;67585;44.802;10.332;2023-05-19T06:16:02;101324.47;;;14.44;78.36
78121;BME280;67585;44.802;10.332;2023-05-19T06:18:28;101313.88;;;14.27;79.05
78121;BME280;67585;44.802;10.332;2023-05-19T06:20:53;101317.38;;;14.22;79.64
78121;BME280;67585;44.802;10.332;2023-05-19T06:23:19;101332.81;;;14.17;79.54
78121;BME280;67585;44.802;10.332;2023-05-19T06:25:44;101319.00;;;14.23;79.50
78121;BME280;67585;44.802;10.332;2023-05-19T06:28:10;101294.28;;;14.04;79.84
78121;BME280;67585;44.802;10.332;2023-05-19T06:30:35;101322.13;;;14.63;78.60
78121;BME280;67585;44.802;10.332;2023-05-19T06:33:01;101323.34;;;14.29;79.83
78121;BME280;67585;44.802;10.332;2023-05-19T06:35:28;101312.56;;;14.40;78.93
78121;BME280;67585;44.802;10.332;2023-05-19T06:37:53;101314.19;;;14.41;78.61
78121;BME280;67585;44.802;10.332;2023-05-19T06:40:20;101293.06;;;14.48;79.08
78121;BME280;67585;44.802;10.332;2023-05-19T06:42:46;101320.75;;;14.60;77.81
78121;BME280;67585;44.802;10.332;2023-05-19T06:45:11;101336.88;;;14.24;78.73
78121;BME280;67585;44.802;10.332;2023-05-19T06:47:36;101333.97;;;14.41;78.90
78121;BME280;67585;44.802;10.332;2023-05-19T06:50:02;101331.00;;;14.43;78.83
78121;BME280;67585;44.802;10.332;2023-05-19T06:52:27;101338.38;;;14.63;78.20
78121;BME280;67585;44.802;10.332;2023-05-19T06:54:53;101309.56;;;14.36;78.56
78121;BME280;67585;44.802;10.332;2023-05-19T06:57:18;101308.16;;;14.18;78.88
78121;BME280;67585;44.802;10.332;2023-05-19T06:59:44;101335.34;;;14.49;79.10
78121;BME280;67585;44.802;10.332;2023-05-19T07:02:11;101319.03;;;14.33;77.97
78121;BME280;67585;44.802;10.332;2023-05-19T07:04:36;101337.28;;;14.53;78.24
78121;BME280;67585;44.802;10.332;2023-05-19T07:07:02;101328.63;;;14.62;78.21
78121;BME280;67585;44.802;10.332;2023-05-19T07:09:27;101329.09;;;14.38;78.55
78121;BME280;67585;44.802;10.332;2023-05-19T07:11:53;101336.22;;;14.55;78.66
78121;BME280;67585;44.802;10.332;2023-05-19T07:14:20;101324.22;;;14.40;79.01
78121;BME280;67585;44.802;10.332;2023-05-19T07:16:45;101334.00;;;14.51;78.76
78121;BME280;67585;44.802;10.332;2023-05-19T07:19:11;101344.56;;;14.48;79.29
78121;BME280;67585;44.802;10.332;2023-05-19T07:21:36;101337.03;;;14.55;79.07
78121;BME280;67585;44.802;10.332;2023-05-19T07:24:02;101328.31;;;14.53;78.93
78121;BME280;67585;44.802;10.332;2023-05-19T07:26:27;101342.44;;;14.60;79.13
78121;BME280;67585;44.802;10.332;2023-05-19T07:28:53;101341.03;;;14.47;78.54
78121;BME280;67585;44.802;10.332;2023-05-19T07:31:18;101341.03;;;14.42;78.66
78121;BME280;67585;44.802;10.332;2023-05-19T07:33:44;101335.88;;;14.46;78.99
78121;BME280;67585;44.802;10.332;2023-05-19T07:36:09;101320.16;;;14.38;78.68
78121;BME280;67585;44.802;10.332;2023-05-19T07:38:35;101336.22;;;14.55;78.99
78121;BME280;67585;44.802;10.332;2023-05-19T07:41:01;101325.81;;;14.31;79.34
78121;BME280;67585;44.802;10.332;2023-05-19T07:43:34;101333.47;;;14.49;79.17
78121;BME280;67585;44.802;10.332;2023-05-19T07:46:00;101319.22;;;14.06;79.67
78121;BME280;67585;44.802;10.332;2023-05-19T07:48:25;101320.06;;;14.22;80.15
78121;BME280;67585;44.802;10.332;2023-05-19T07:50:51;101340.00;;;14.53;79.61
78121;BME280;67585;44.802;10.332;2023-05-19T07:53:18;101330.00;;;14.74;77.96
78121;BME280;67585;44.802;10.332;2023-05-19T07:55:43;101315.91;;;14.72;76.72
78121;BME280;67585;44.802;10.332;2023-05-19T07:58:09;101334.91;;;15.03;77.50
78121;BME280;67585;44.802;10.332;2023-05-19T08:00:34;101326.78;;;14.93;76.73
78121;BME280;67585;44.802;10.332;2023-05-19T08:03:00;101317.81;;;14.98;76.92
78121;BME280;67585;44.802;10.332;2023-05-19T08:05:26;101328.38;;;14.73;75.98
78121;BME280;67585;44.802;10.332;2023-05-19T08:07:51;101334.06;;;14.57;76.80
78121;BME280;67585;44.802;10.332;2023-05-19T08:10:17;101333.25;;;14.71;77.21
78121;BME280;67585;44.802;10.332;2023-05-19T08:12:42;101315.28;;;14.50;76.91
78121;BME280;67585;44.802;10.332;2023-05-19T08:15:10;101319.34;;;14.47;78.47
78121;BME280;67585;44.802;10.332;2023-05-19T08:17:36;101328.56;;;14.46;78.75
78121;BME280;67585;44.802;10.332;2023-05-19T08:20:06;101330.75;;;14.49;78.27
78121;BME280;67585;44.802;10.332;2023-05-19T08:22:33;101332.47;;;14.76;78.20
78121;BME280;67585;44.802;10.332;2023-05-19T08:24:58;101323.78;;;14.84;78.17
78121;BME280;67585;44.802;10.332;2023-05-19T08:27:23;101291.69;;;14.50;78.17
78121;BME280;67585;44.802;10.332;2023-05-19T08:29:49;101316.44;;;14.90;77.89
78121;BME280;67585;44.802;10.332;2023-05-19T08:32:14;101339.50;;;14.77;78.41
78121;BME280;67585;44.802;10.332;2023-05-19T08:34:40;101327.28;;;14.85;78.05
78121;BME280;67585;44.802;10.332;2023-05-19T08:37:05;101314.00;;;14.78;78.54
78121;BME280;67585;44.802;10.332;2023-05-19T08:39:31;101330.56;;;15.23;77.09
78121;BME280;67585;44.802;10.332;2023-05-19T08:41:58;101338.44;;;15.09;77.12
78121;BME280;67585;44.802;10.332;2023-05-19T08:44:24;101344.13;;;14.87;76.29
78121;BME280;67585;44.802;10.332;2023-05-19T08:46:49;101334.63;;;14.89;76.82
78121;BME280;67585;44.802;10.332;2023-05-19T08:49:25;101342.22;;;15.38;75.54
78121;BME280;67585;44.802;10.332;2023-05-19T08:52:07;101341.69;;;15.42;74.88
78121;BME280;67585;44.802;10.332;2023-05-19T08:54:41;101340.88;;;15.26;77.07
78121;BME280;67585;44.802;10.332;2023-05-19T08:57:09;101330.84;;;15.06;76.48
78121;BME280;67585;44.802;10.332;2023-05-19T08:59:35;101334.38;;;15.06;77.17
78121;BME280;67585;44.802;10.332;2023-05-19T09:02:02;101348.69;;;14.61;79.90
78121;BME280;67585;44.802;10.332;2023-05-19T09:04:29;101344.09;;;14.61;79.66
78121;BME280;67585;44.802;10.332;2023-05-19T09:06:55;101342.75;;;14.79;79.96
78121;BME280;67585;44.802;10.332;2023-05-19T09:09:21;101326.75;;;14.67;79.99
78121;BME280;67585;44.802;10.332;2023-05-19T09:11:46;101345.22;;;14.81;79.54
78121;BME280;67585;44.802;10.332;2023-05-19T09:14:11;101328.41;;;14.89;79.36
78121;BME280;67585;44.802;10.332;2023-05-19T09:16:37;101348.44;;;14.78;79.50
78121;BME280;67585;44.802;10.332;2023-05-19T09:19:03;101338.44;;;14.93;79.32
78121;BME280;67585;44.802;10.332;2023-05-19T09:21:30;101341.16;;;14.83;79.56
78121;BME280;67585;44.802;10.332;2023-05-19T09:24:04;101339.00;;;15.06;79.23
78121;BME280;67585;44.802;10.332;2023-05-19T09:26:38;101346.56;;;15.19;78.57
78121;BME280;67585;44.802;10.332;2023-05-19T09:29:17;101319.72;;;15.23;78.57
78121;BME280;67585;44.802;10.332;2023-05-19T09:31:53;101331.94;;;15.10;78.90
78121;BME280;67585;44.802;10.332;2023-05-19T09:34:20;101339.78;;;15.22;78.82
78121;BME280;67585;44.802;10.332;2023-05-19T09:36:50;101328.94;;;15.11;79.56
78121;BME280;67585;44.802;10.332;2023-05-19T09:39:21;101330.56;;;15.33;78.09
78121;BME280;67585;44.802;10.332;2023-05-19T09:41:53;101326.50;;;15.30;78.85
78121;BME280;67585;44.802;10.332;2023-05-19T09:46:50;101327.78;;;15.69;77.06
78121;BME280;67585;44.802;10.332;2023-05-19T09:49:21;101314.28;;;15.17;78.90
78121;BME280;67585;44.802;10.332;2023-05-19T09:51:53;101335.72;;;15.24;78.91
78121;BME280;67585;44.802;10.332;2023-05-19T09:54:20;101318.63;;;15.39;78.73
78121;BME280;67585;44.802;10.332;2023-05-19T09:56:49;101331.88;;;15.51;78.75
78121;BME280;67585;44.802;10.332;2023-05-19T09:59:15;101313.47;;;15.32;79.04
78121;BME280;67585;44.802;10.332;2023-05-19T10:01:40;101313.72;;;15.36;79.45
78121;BME280;67585;44.802;10.332;2023-05-19T10:04:10;101328.13;;;15.42;79.43
78121;BME280;67585;44.802;10.332;2023-05-19T10:06:36;101303.94;;;15.35;79.45
78121;BME280;67585;44.802;10.332;2023-05-19T10:09:02;101341.66;;;15.52;79.76
78121;BME280;67585;44.802;10.332;2023-05-19T10:11:29;101341.66;;;15.72;79.24
78121;BME280;67585;44.802;10.332;2023-05-19T10:13:55;101334.59;;;15.56;79.51
78121;BME280;67585;44.802;10.332;2023-05-19T10:16:20;101317.00;;;15.23;78.97
78121;BME280;67585;44.802;10.332;2023-05-19T10:18:48;101316.19;;;15.22;79.11
78121;BME280;67585;44.802;10.332;2023-05-19T10:21:15;101342.75;;;15.41;79.29
78121;BME280;67585;44.802;10.332;2023-05-19T10:23:41;101340.06;;;15.35;79.95
78121;BME280;67585;44.802;10.332;2023-05-19T10:26:07;101327.81;;;15.58;78.82
78121;BME280;67585;44.802;10.332;2023-05-19T10:28:36;101326.44;;;15.76;77.54
78121;BME280;67585;44.802;10.332;2023-05-19T10:31:06;101324.00;;;15.54;78.97
78121;BME280;67585;44.802;10.332;2023-05-19T10:36:38;101281.63;;;15.53;78.51
78121;BME280;67585;44.802;10.332;2023-05-19T10:39:14;101310.16;;;15.51;79.95
78121;BME280;67585;44.802;10.332;2023-05-19T10:44:30;101331.56;;;15.83;78.55
78121;BME280;67585;44.802;10.332;2023-05-19T10:46:59;101318.03;;;15.57;78.36
78121;BME280;67585;44.802;10.332;2023-05-19T10:49:24;101313.44;;;15.48;78.63
78121;BME280;67585;44.802;10.332;2023-05-19T10:51:54;101324.25;;;15.78;79.12
78121;BME280;67585;44.802;10.332;2023-05-19T10:54:40;101324.50;;;15.82;79.03
78121;BME280;67585;44.802;10.332;2023-05-19T10:57:07;101322.88;;;15.86;78.48
78121;BME280;67585;44.802;10.332;2023-05-19T10:59:35;101320.41;;;15.90;78.19
78121;BME280;67585;44.802;10.332;2023-05-19T11:02:07;101318.75;;;15.99;76.54
78121;BME280;67585;44.802;10.332;2023-05-19T11:04:45;101322.38;;;15.74;77.70
78121;BME280;67585;44.802;10.332;2023-05-19T11:07:21;101308.78;;;15.64;78.19
78121;BME280;67585;44.802;10.332;2023-05-19T11:09:52;101323.72;;;15.66;78.18
78121;BME280;67585;44.802;10.332;2023-05-19T11:12:21;101315.03;;;15.64;79.18
78121;BME280;67585;44.802;10.332;2023-05-19T11:14:47;101313.63;;;15.82;78.19
78121;BME280;67585;44.802;10.332;2023-05-19T11:17:17;101290.91;;;15.42;79.57
78121;BME280;67585;44.802;10.332;2023-05-19T11:19:53;101316.16;;;15.43;79.61
78121;BME280;67585;44.802;10.332;2023-05-19T11:22:25;101319.66;;;15.58;79.13
78121;BME280;67585;44.802;10.332;2023-05-19T11:24:50;101312.91;;;15.41;79.86
78121;BME280;67585;44.802;10.332;2023-05-19T11:27:25;101318.59;;;15.49;79.48
78121;BME280;67585;44.802;10.332;2023-05-19T11:32:28;101293.91;;;15.35;79.73
78121;BME280;67585;44.802;10.332;2023-05-19T11:34:55;101285.47;;;15.42;80.19
78121;BME280;67585;44.802;10.332;2023-05-19T11:37:21;101287.94;;;15.33;80.27
78121;BME280;67585;44.802;10.332;2023-05-19T11:39:46;101312.06;;;15.50;80.64
78121;BME280;67585;44.802;10.332;2023-05-19T11:42:12;101312.03;;;15.60;80.18
78121;BME280;67585;44.802;10.332;2023-05-19T11:44:38;101306.91;;;15.54;81.47
78121;BME280;67585;44.802;10.332;2023-05-19T11:47:05;101303.09;;;15.50;81.56
78121;BME280;67585;44.802;10.332;2023-05-19T11:49:30;101298.25;;;15.42;81.69
78121;BME280;67585;44.802;10.332;2023-05-19T11:51:56;101271.94;;;15.16;81.77
78121;BME280;67585;44.802;10.332;2023-05-19T11:54:28;101290.38;;;15.40;81.35
78121;BME280;67585;44.802;10.332;2023-05-19T11:56:54;101291.44;;;15.34;81.68
78121;BME280;67585;44.802;10.332;2023-05-19T11:59:31;101302.03;;;15.46;81.31
78121;BME280;67585;44.802;10.332;2023-05-19T12:01:59;101301.50;;;15.49;82.08
78121;BME280;67585;44.802;10.332;2023-05-19T12:04:25;101290.38;;;15.40;81.54
78121;BME280;67585;44.802;10.332;2023-05-19T12:06:51;101279.81;;;15.23;81.08
78121;BME280;67585;44.802;10.332;2023-05-19T12:09:18;101305.03;;;15.39;81.14
78121;BME280;67585;44.802;10.332;2023-05-19T12:11:43;101294.44;;;15.37;82.03
78121;BME280;67585;44.802;10.332;2023-05-19T12:14:09;101302.88;;;15.21;81.63
78121;BME280;67585;44.802;10.332;2023-05-19T12:16:35;101295.81;;;15.30;82.06
78121;BME280;67585;44.802;10.332;2023-05-19T12:19:04;101303.91;;;15.50;82.18
78121;BME280;67585;44.802;10.332;2023-05-19T12:21:30;101278.16;;;15.37;82.39
78121;BME280;67585;44.802;10.332;2023-05-19T12:23:57;101292.50;;;15.53;82.30
78121;BME280;67585;44.802;10.332;2023-05-19T12:26:23;101294.91;;;15.65;80.75
78121;BME280;67585;44.802;10.332;2023-05-19T12:28:49;101296.00;;;15.64;80.58
78121;BME280;67585;44.802;10.332;2023-05-19T12:31:16;101271.94;;;15.37;80.46
78121;BME280;67585;44.802;10.332;2023-05-19T12:33:41;101295.50;;;15.57;80.22
78121;BME280;67585;44.802;10.332;2023-05-19T12:36:07;101278.13;;;15.53;81.26
78121;BME280;67585;44.802;10.332;2023-05-19T12:38:33;101280.56;;;15.54;81.61
78121;BME280;67585;44.802;10.332;2023-05-19T12:41:01;101273.75;;;15.62;80.54
78121;BME280;67585;44.802;10.332;2023-05-19T12:43:27;101294.66;;;15.62;80.78
78121;BME280;67585;44.802;10.332;2023-05-19T12:45:52;101299.88;;;15.37;81.62
78121;BME280;67585;44.802;10.332;2023-05-19T12:48:20;101294.97;;;15.50;80.83
78121;BME280;67585;44.802;10.332;2023-05-19T12:50:46;101276.81;;;15.30;81.48
78121;BME280;67585;44.802;10.332;2023-05-19T12:53:13;101259.47;;;15.21;80.64
78121;BME280;67585;44.802;10.332;2023-05-19T12:55:40;101296.31;;;15.47;81.75
78121;BME280;67585;44.802;10.332;2023-05-19T12:58:09;101277.91;;;15.39;82.02
78121;BME280;67585;44.802;10.332;2023-05-19T13:00:45;101284.16;;;15.29;83.16